sensor_id;sensor_type;location;lat;lon;timestamp;P1;durP1;ratioP1;P2;durP2;ratioP2
61553;SDS011;47425;51.976;5.326;2022-09-27T09:02:36;1.90;;;0.75;;
61553;SDS011;47425;51.976;5.326;2022-09-27T09:05:14;13.82;;;1.42;;
61553;SDS011;47425;51.976;5.326;2022-09-27T09:08:14;24.33;;;2.10;;
61553;SDS011;47425;51.976;5.326;2022-09-27T09:10:51;16.33;;;1.77;;
61553;SDS011;47425;51.976;5.326;2022-09-27T09:13:49;10.60;;;1.45;;
61553;SDS011;47425;51.976;5.326;2022-09-27T09:19:12;14.25;;;1.67;;
61553;SDS011;47425;51.976;5.326;2022-09-27T09:35:34;6.75;;;1.25;;
61553;SDS011;47425;51.976;5.326;2022-09-27T09:38:09;6.22;;;1.30;;
61553;SDS011;47425;51.976;5.326;2022-09-27T09:41:05;9.77;;;1.80;;
61553;SDS011;47425;51.976;5.326;2022-09-27T09:43:32;6.20;;;1.27;;
61553;SDS011;47425;51.976;5.326;2022-09-27T09:46:09;7.38;;;1.30;;
61553;SDS011;47425;51.976;5.326;2022-09-27T09:51:12;5.40;;;1.10;;
61553;SDS011;47425;51.976;5.326;2022-09-27T09:53:53;6.07;;;0.90;;
61553;SDS011;47425;51.976;5.326;2022-09-27T09:56:41;6.65;;;1.20;;
61553;SDS011;47425;51.976;5.326;2022-09-27T09:59:24;6.38;;;1.13;;
61553;SDS011;47425;51.976;5.326;2022-09-27T10:02:12;9.20;;;1.73;;
61553;SDS011;47425;51.976;5.326;2022-09-27T10:05:02;6.13;;;1.57;;
61553;SDS011;47425;51.976;5.326;2022-09-27T10:07:28;7.40;;;1.23;;
61553;SDS011;47425;51.976;5.326;2022-09-27T10:09:59;2.35;;;0.63;;
61553;SDS011;47425;51.976;5.326;2022-09-27T10:12:52;4.93;;;1.10;;
61553;SDS011;47425;51.976;5.326;2022-09-27T10:15:27;4.65;;;0.90;;
61553;SDS011;47425;51.976;5.326;2022-09-27T10:18:16;3.67;;;1.30;;
61553;SDS011;47425;51.976;5.326;2022-09-27T10:20:46;5.25;;;1.02;;
61553;SDS011;47425;51.976;5.326;2022-09-27T10:23:17;4.60;;;1.08;;
61553;SDS011;47425;51.976;5.326;2022-09-27T10:26:11;5.97;;;1.05;;
61553;SDS011;47425;51.976;5.326;2022-09-27T10:28:40;4.85;;;1.05;;
61553;SDS011;47425;51.976;5.326;2022-09-27T10:31:16;4.13;;;1.50;;
61553;SDS011;47425;51.976;5.326;2022-09-27T10:34:04;4.43;;;0.60;;
61553;SDS011;47425;51.976;5.326;2022-09-27T10:36:36;2.38;;;0.68;;
61553;SDS011;47425;51.976;5.326;2022-09-27T10:39:04;6.47;;;1.17;;
61553;SDS011;47425;51.976;5.326;2022-09-27T10:41:39;5.55;;;1.00;;
61553;SDS011;47425;51.976;5.326;2022-09-27T10:49:31;4.40;;;0.57;;
61553;SDS011;47425;51.976;5.326;2022-09-27T10:52:33;2.75;;;0.88;;
61553;SDS011;47425;51.976;5.326;2022-09-27T10:55:05;3.83;;;0.70;;
61553;SDS011;47425;51.976;5.326;2022-09-27T10:57:52;3.60;;;0.70;;
61553;SDS011;47425;51.976;5.326;2022-09-27T11:00:23;3.33;;;0.93;;
61553;SDS011;47425;51.976;5.326;2022-09-27T11:02:53;2.55;;;0.57;;
61553;SDS011;47425;51.976;5.326;2022-09-27T11:07:54;1.98;;;0.65;;
61553;SDS011;47425;51.976;5.326;2022-09-27T11:10:31;3.03;;;0.70;;
61553;SDS011;47425;51.976;5.326;2022-09-27T11:13:13;1.50;;;0.68;;
61553;SDS011;47425;51.976;5.326;2022-09-27T11:35:43;1.67;;;0.60;;
61553;SDS011;47425;51.976;5.326;2022-09-27T11:38:31;1.40;;;0.57;;
61553;SDS011;47425;51.976;5.326;2022-09-27T11:44:23;2.28;;;0.70;;
61553;SDS011;47425;51.976;5.326;2022-09-27T11:46:56;2.38;;;0.50;;
61553;SDS011;47425;51.976;5.326;2022-09-27T11:57:30;1.75;;;0.50;;
61553;SDS011;47425;51.976;5.326;2022-09-27T12:00:13;3.97;;;0.68;;
61553;SDS011;47425;51.976;5.326;2022-09-27T12:10:46;2.20;;;0.60;;
61553;SDS011;47425;51.976;5.326;2022-09-27T12:13:25;1.40;;;0.40;;
61553;SDS011;47425;51.976;5.326;2022-09-27T12:16:01;1.42;;;0.40;;
61553;SDS011;47425;51.976;5.326;2022-09-27T12:18:36;1.10;;;0.60;;
61553;SDS011;47425;51.976;5.326;2022-09-27T12:21:16;1.35;;;0.70;;
61553;SDS011;47425;51.976;5.326;2022-09-27T12:23:48;1.48;;;0.45;;
61553;SDS011;47425;51.976;5.326;2022-09-27T12:26:35;1.20;;;0.60;;
61553;SDS011;47425;51.976;5.326;2022-09-27T12:32:10;1.52;;;0.50;;
61553;SDS011;47425;51.976;5.326;2022-09-27T12:35:05;0.30;;;0.30;;
61553;SDS011;47425;51.976;5.326;2022-09-27T12:37:38;2.28;;;0.50;;
61553;SDS011;47425;51.976;5.326;2022-09-27T12:40:17;0.40;;;0.40;;
61553;SDS011;47425;51.976;5.326;2022-09-27T12:42:49;0.95;;;0.63;;
61553;SDS011;47425;51.976;5.326;2022-09-27T12:51:38;0.60;;;0.30;;
61553;SDS011;47425;51.976;5.326;2022-09-27T13:02:38;1.33;;;0.43;;
61553;SDS011;47425;51.976;5.326;2022-09-27T13:08:30;0.63;;;0.32;;
61553;SDS011;47425;51.976;5.326;2022-09-27T13:11:22;1.02;;;0.32;;
61553;SDS011;47425;51.976;5.326;2022-09-27T13:13:53;1.35;;;0.63;;
61553;SDS011;47425;51.976;5.326;2022-09-27T13:16:21;2.13;;;0.52;;
61553;SDS011;47425;51.976;5.326;2022-09-27T13:18:51;0.70;;;0.40;;
61553;SDS011;47425;51.976;5.326;2022-09-27T13:42:00;0.98;;;0.50;;
61553;SDS011;47425;51.976;5.326;2022-09-27T13:53:24;1.20;;;0.65;;
61553;SDS011;47425;51.976;5.326;2022-09-27T13:55:55;1.25;;;0.60;;
61553;SDS011;47425;51.976;5.326;2022-09-27T13:58:48;1.23;;;0.80;;
61553;SDS011;47425;51.976;5.326;2022-09-27T14:01:45;1.73;;;0.65;;
61553;SDS011;47425;51.976;5.326;2022-09-27T14:04:36;1.17;;;0.65;;
61553;SDS011;47425;51.976;5.326;2022-09-27T14:07:09;0.45;;;0.40;;
61553;SDS011;47425;51.976;5.326;2022-09-27T14:09:58;1.38;;;0.63;;
61553;SDS011;47425;51.976;5.326;2022-09-27T14:12:31;2.28;;;0.75;;
61553;SDS011;47425;51.976;5.326;2022-09-27T14:15:01;0.93;;;0.55;;
61553;SDS011;47425;51.976;5.326;2022-09-27T14:17:29;1.13;;;0.70;;
61553;SDS011;47425;51.976;5.326;2022-09-27T14:19:57;2.58;;;0.70;;
61553;SDS011;47425;51.976;5.326;2022-09-27T14:22:23;1.63;;;0.60;;
61553;SDS011;47425;51.976;5.326;2022-09-27T14:24:57;1.38;;;1.00;;
61553;SDS011;47425;51.976;5.326;2022-09-27T14:27:36;0.43;;;0.43;;
61553;SDS011;47425;51.976;5.326;2022-09-27T14:30:23;0.70;;;0.40;;
61553;SDS011;47425;51.976;5.326;2022-09-27T14:33:29;1.63;;;0.60;;
61553;SDS011;47425;51.976;5.326;2022-09-27T14:36:01;0.90;;;0.60;;
61553;SDS011;47425;51.976;5.326;2022-09-27T14:38:47;1.15;;;0.60;;
61553;SDS011;47425;51.976;5.326;2022-09-27T14:41:22;0.65;;;0.60;;
61553;SDS011;47425;51.976;5.326;2022-09-27T14:43:48;1.48;;;0.65;;
61553;SDS011;47425;51.976;5.326;2022-09-27T14:46:34;1.02;;;0.60;;
61553;SDS011;47425;51.976;5.326;2022-09-27T14:49:10;2.70;;;1.10;;
61553;SDS011;47425;51.976;5.326;2022-09-27T14:51:53;1.38;;;0.45;;
61553;SDS011;47425;51.976;5.326;2022-09-27T14:54:22;2.22;;;0.70;;
61553;SDS011;47425;51.976;5.326;2022-09-27T14:56:51;2.03;;;0.70;;
61553;SDS011;47425;51.976;5.326;2022-09-27T15:02:00;4.50;;;0.50;;
61553;SDS011;47425;51.976;5.326;2022-09-27T15:04:31;2.38;;;1.02;;
61553;SDS011;47425;51.976;5.326;2022-09-27T15:06:57;1.10;;;0.70;;
61553;SDS011;47425;51.976;5.326;2022-09-27T15:09:26;4.43;;;1.23;;
61553;SDS011;47425;51.976;5.326;2022-09-27T15:11:54;2.15;;;0.90;;
61553;SDS011;47425;51.976;5.326;2022-09-27T15:14:41;2.70;;;0.95;;
61553;SDS011;47425;51.976;5.326;2022-09-27T15:17:14;2.90;;;0.98;;
61553;SDS011;47425;51.976;5.326;2022-09-27T15:19:54;1.98;;;0.73;;
61553;SDS011;47425;51.976;5.326;2022-09-27T15:22:22;2.05;;;0.82;;
61553;SDS011;47425;51.976;5.326;2022-09-27T15:25:20;2.10;;;0.88;;
61553;SDS011;47425;51.976;5.326;2022-09-27T15:27:53;2.17;;;1.13;;
61553;SDS011;47425;51.976;5.326;2022-09-27T15:30:34;3.20;;;0.95;;
61553;SDS011;47425;51.976;5.326;2022-09-27T15:33:01;3.08;;;0.70;;
61553;SDS011;47425;51.976;5.326;2022-09-27T15:35:28;1.73;;;0.82;;
61553;SDS011;47425;51.976;5.326;2022-09-27T15:43:41;1.30;;;0.88;;
61553;SDS011;47425;51.976;5.326;2022-09-27T15:51:44;1.35;;;0.70;;
61553;SDS011;47425;51.976;5.326;2022-09-27T15:54:10;0.80;;;0.70;;
61553;SDS011;47425;51.976;5.326;2022-09-27T15:56:40;0.75;;;0.70;;
61553;SDS011;47425;51.976;5.326;2022-09-27T16:01:36;1.30;;;0.73;;
61553;SDS011;47425;51.976;5.326;2022-09-27T16:04:06;2.25;;;0.98;;
61553;SDS011;47425;51.976;5.326;2022-09-27T16:06:34;2.25;;;0.65;;
61553;SDS011;47425;51.976;5.326;2022-09-27T16:08:59;2.33;;;1.00;;
61553;SDS011;47425;51.976;5.326;2022-09-27T16:11:25;1.33;;;0.80;;
61553;SDS011;47425;51.976;5.326;2022-09-27T16:13:51;2.53;;;0.80;;
61553;SDS011;47425;51.976;5.326;2022-09-27T16:16:19;1.15;;;0.65;;
61553;SDS011;47425;51.976;5.326;2022-09-27T16:18:45;3.22;;;0.68;;
61553;SDS011;47425;51.976;5.326;2022-09-27T16:21:12;1.35;;;0.80;;
61553;SDS011;47425;51.976;5.326;2022-09-27T16:23:38;2.85;;;1.10;;
61553;SDS011;47425;51.976;5.326;2022-09-27T16:26:03;5.10;;;1.48;;
61553;SDS011;47425;51.976;5.326;2022-09-27T16:28:29;7.97;;;1.60;;
61553;SDS011;47425;51.976;5.326;2022-09-27T16:31:03;6.82;;;1.77;;
61553;SDS011;47425;51.976;5.326;2022-09-27T16:33:50;6.50;;;1.87;;
61553;SDS011;47425;51.976;5.326;2022-09-27T16:36:15;5.88;;;2.25;;
61553;SDS011;47425;51.976;5.326;2022-09-27T16:38:47;10.82;;;2.75;;
61553;SDS011;47425;51.976;5.326;2022-09-27T16:41:15;13.00;;;2.60;;
61553;SDS011;47425;51.976;5.326;2022-09-27T16:44:06;8.55;;;2.72;;
61553;SDS011;47425;51.976;5.326;2022-09-27T16:46:32;9.85;;;3.00;;
61553;SDS011;47425;51.976;5.326;2022-09-27T16:48:59;11.18;;;3.00;;
61553;SDS011;47425;51.976;5.326;2022-09-27T16:51:25;8.25;;;2.67;;
61553;SDS011;47425;51.976;5.326;2022-09-27T16:54:10;10.50;;;2.80;;
61553;SDS011;47425;51.976;5.326;2022-09-27T16:56:39;12.27;;;2.97;;
61553;SDS011;47425;51.976;5.326;2022-09-27T16:59:04;9.98;;;2.58;;
61553;SDS011;47425;51.976;5.326;2022-09-27T17:01:32;17.93;;;2.90;;
61553;SDS011;47425;51.976;5.326;2022-09-27T17:03:58;7.00;;;2.30;;
61553;SDS011;47425;51.976;5.326;2022-09-27T17:06:24;7.25;;;2.35;;
61553;SDS011;47425;51.976;5.326;2022-09-27T17:09:12;8.20;;;2.50;;
61553;SDS011;47425;51.976;5.326;2022-09-27T17:11:38;9.27;;;2.45;;
61553;SDS011;47425;51.976;5.326;2022-09-27T17:14:04;8.40;;;2.30;;
61553;SDS011;47425;51.976;5.326;2022-09-27T17:16:29;6.80;;;2.50;;
61553;SDS011;47425;51.976;5.326;2022-09-27T17:18:56;7.07;;;2.40;;
61553;SDS011;47425;51.976;5.326;2022-09-27T17:21:21;8.75;;;2.50;;
61553;SDS011;47425;51.976;5.326;2022-09-27T17:23:47;10.40;;;2.45;;
61553;SDS011;47425;51.976;5.326;2022-09-27T17:26:14;6.30;;;2.20;;
61553;SDS011;47425;51.976;5.326;2022-09-27T17:29:00;5.07;;;2.10;;
61553;SDS011;47425;51.976;5.326;2022-09-27T17:31:27;6.68;;;2.15;;
61553;SDS011;47425;51.976;5.326;2022-09-27T17:33:55;6.25;;;2.15;;
61553;SDS011;47425;51.976;5.326;2022-09-27T17:36:22;10.20;;;2.45;;
61553;SDS011;47425;51.976;5.326;2022-09-27T17:38:50;8.52;;;2.40;;
61553;SDS011;47425;51.976;5.326;2022-09-27T17:41:17;7.20;;;2.17;;
61553;SDS011;47425;51.976;5.326;2022-09-27T17:43:45;3.55;;;1.98;;
61553;SDS011;47425;51.976;5.326;2022-09-27T17:46:19;9.68;;;2.97;;
61553;SDS011;47425;51.976;5.326;2022-09-27T17:49:08;8.35;;;2.08;;
61553;SDS011;47425;51.976;5.326;2022-09-27T17:51:52;6.03;;;2.10;;
61553;SDS011;47425;51.976;5.326;2022-09-27T17:54:19;4.72;;;2.03;;
61553;SDS011;47425;51.976;5.326;2022-09-27T17:56:48;7.07;;;2.08;;
61553;SDS011;47425;51.976;5.326;2022-09-27T17:59:17;7.93;;;2.03;;
61553;SDS011;47425;51.976;5.326;2022-09-27T18:01:44;6.00;;;2.10;;
61553;SDS011;47425;51.976;5.326;2022-09-27T18:06:40;7.38;;;2.10;;
61553;SDS011;47425;51.976;5.326;2022-09-27T18:09:09;5.85;;;2.10;;
61553;SDS011;47425;51.976;5.326;2022-09-27T18:11:36;6.30;;;2.22;;
61553;SDS011;47425;51.976;5.326;2022-09-27T18:14:02;5.93;;;2.13;;
61553;SDS011;47425;51.976;5.326;2022-09-27T18:16:48;6.88;;;2.10;;
61553;SDS011;47425;51.976;5.326;2022-09-27T18:19:15;4.78;;;1.80;;
61553;SDS011;47425;51.976;5.326;2022-09-27T18:21:41;4.97;;;1.60;;
61553;SDS011;47425;51.976;5.326;2022-09-27T18:24:07;5.72;;;2.30;;
61553;SDS011;47425;51.976;5.326;2022-09-27T18:26:34;5.43;;;1.80;;
61553;SDS011;47425;51.976;5.326;2022-09-27T18:29:07;5.15;;;2.00;;
61553;SDS011;47425;51.976;5.326;2022-09-27T18:31:35;3.58;;;1.70;;
61553;SDS011;47425;51.976;5.326;2022-09-27T18:34:02;3.15;;;1.45;;
61553;SDS011;47425;51.976;5.326;2022-09-27T18:36:28;5.05;;;1.90;;
61553;SDS011;47425;51.976;5.326;2022-09-27T18:38:54;6.82;;;1.60;;
61553;SDS011;47425;51.976;5.326;2022-09-27T18:43:54;4.85;;;1.55;;
61553;SDS011;47425;51.976;5.326;2022-09-27T18:46:23;3.38;;;1.50;;
61553;SDS011;47425;51.976;5.326;2022-09-27T18:48:50;5.30;;;1.40;;
61553;SDS011;47425;51.976;5.326;2022-09-27T18:51:17;2.88;;;1.42;;
61553;SDS011;47425;51.976;5.326;2022-09-27T18:53:46;3.38;;;1.73;;
61553;SDS011;47425;51.976;5.326;2022-09-27T18:56:13;3.67;;;1.67;;
61553;SDS011;47425;51.976;5.326;2022-09-27T18:58:41;3.88;;;1.88;;
61553;SDS011;47425;51.976;5.326;2022-09-27T19:01:10;5.93;;;1.70;;
61553;SDS011;47425;51.976;5.326;2022-09-27T19:03:37;2.42;;;1.45;;
61553;SDS011;47425;51.976;5.326;2022-09-27T19:06:03;4.82;;;1.65;;
61553;SDS011;47425;51.976;5.326;2022-09-27T19:08:31;4.57;;;1.60;;
61553;SDS011;47425;51.976;5.326;2022-09-27T19:11:17;3.33;;;1.60;;
61553;SDS011;47425;51.976;5.326;2022-09-27T19:13:43;2.47;;;1.30;;
61553;SDS011;47425;51.976;5.326;2022-09-27T19:16:09;2.72;;;1.52;;
61553;SDS011;47425;51.976;5.326;2022-09-27T19:18:36;4.68;;;1.63;;
61553;SDS011;47425;51.976;5.326;2022-09-27T19:21:05;4.40;;;1.50;;
61553;SDS011;47425;51.976;5.326;2022-09-27T19:23:36;1.85;;;1.20;;
61553;SDS011;47425;51.976;5.326;2022-09-27T19:26:03;2.92;;;1.45;;
61553;SDS011;47425;51.976;5.326;2022-09-27T19:28:34;3.17;;;1.30;;
61553;SDS011;47425;51.976;5.326;2022-09-27T19:31:06;3.05;;;1.52;;
61553;SDS011;47425;51.976;5.326;2022-09-27T19:33:35;4.18;;;1.65;;
61553;SDS011;47425;51.976;5.326;2022-09-27T19:36:04;2.38;;;1.20;;
61553;SDS011;47425;51.976;5.326;2022-09-27T19:38:33;3.92;;;1.50;;
61553;SDS011;47425;51.976;5.326;2022-09-27T19:43:26;2.05;;;1.13;;
61553;SDS011;47425;51.976;5.326;2022-09-27T19:45:52;3.17;;;1.30;;
61553;SDS011;47425;51.976;5.326;2022-09-27T19:48:18;2.33;;;1.30;;
61553;SDS011;47425;51.976;5.326;2022-09-27T19:50:53;2.53;;;1.08;;
61553;SDS011;47425;51.976;5.326;2022-09-27T19:53:20;2.92;;;1.38;;
61553;SDS011;47425;51.976;5.326;2022-09-27T19:55:45;1.83;;;1.20;;
61553;SDS011;47425;51.976;5.326;2022-09-27T19:58:12;2.92;;;1.77;;
61553;SDS011;47425;51.976;5.326;2022-09-27T20:00:37;3.33;;;1.13;;
61553;SDS011;47425;51.976;5.326;2022-09-27T20:03:02;1.77;;;1.23;;
61553;SDS011;47425;51.976;5.326;2022-09-27T20:05:29;3.47;;;1.15;;
61553;SDS011;47425;51.976;5.326;2022-09-27T20:07:54;3.60;;;1.38;;
61553;SDS011;47425;51.976;5.326;2022-09-27T20:10:20;1.58;;;1.33;;
61553;SDS011;47425;51.976;5.326;2022-09-27T20:12:45;3.25;;;1.30;;
61553;SDS011;47425;51.976;5.326;2022-09-27T20:15:14;2.30;;;1.40;;
61553;SDS011;47425;51.976;5.326;2022-09-27T20:17:41;1.98;;;1.23;;
61553;SDS011;47425;51.976;5.326;2022-09-27T20:20:07;2.50;;;1.20;;
61553;SDS011;47425;51.976;5.326;2022-09-27T20:22:32;2.67;;;1.48;;
61553;SDS011;47425;51.976;5.326;2022-09-27T20:24:59;2.92;;;1.48;;
61553;SDS011;47425;51.976;5.326;2022-09-27T20:27:24;2.92;;;1.40;;
61553;SDS011;47425;51.976;5.326;2022-09-27T20:29:50;2.88;;;1.20;;
61553;SDS011;47425;51.976;5.326;2022-09-27T20:32:16;2.40;;;1.30;;
61553;SDS011;47425;51.976;5.326;2022-09-27T20:34:42;4.05;;;1.33;;
61553;SDS011;47425;51.976;5.326;2022-09-27T20:37:07;2.22;;;1.55;;
61553;SDS011;47425;51.976;5.326;2022-09-27T20:39:34;2.35;;;1.23;;
61553;SDS011;47425;51.976;5.326;2022-09-27T20:41:59;1.75;;;0.95;;
61553;SDS011;47425;51.976;5.326;2022-09-27T20:44:25;2.30;;;1.20;;
61553;SDS011;47425;51.976;5.326;2022-09-27T20:46:51;2.40;;;1.40;;
61553;SDS011;47425;51.976;5.326;2022-09-27T20:49:17;2.53;;;1.23;;
61553;SDS011;47425;51.976;5.326;2022-09-27T20:51:43;3.15;;;1.35;;
61553;SDS011;47425;51.976;5.326;2022-09-27T20:54:12;2.25;;;1.30;;
61553;SDS011;47425;51.976;5.326;2022-09-27T20:56:45;2.83;;;1.17;;
61553;SDS011;47425;51.976;5.326;2022-09-27T20:59:14;1.70;;;1.13;;
61553;SDS011;47425;51.976;5.326;2022-09-27T21:04:08;2.22;;;1.25;;
61553;SDS011;47425;51.976;5.326;2022-09-27T21:06:35;3.13;;;1.20;;
61553;SDS011;47425;51.976;5.326;2022-09-27T21:09:02;2.35;;;1.30;;
61553;SDS011;47425;51.976;5.326;2022-09-27T21:11:29;2.78;;;1.38;;
61553;SDS011;47425;51.976;5.326;2022-09-27T21:13:54;2.58;;;1.15;;
61553;SDS011;47425;51.976;5.326;2022-09-27T21:16:22;2.28;;;1.35;;
61553;SDS011;47425;51.976;5.326;2022-09-27T21:18:50;4.82;;;1.58;;
61553;SDS011;47425;51.976;5.326;2022-09-27T21:21:16;2.15;;;1.27;;
61553;SDS011;47425;51.976;5.326;2022-09-27T21:23:44;3.13;;;1.63;;
61553;SDS011;47425;51.976;5.326;2022-09-27T21:28:41;1.92;;;1.05;;
61553;SDS011;47425;51.976;5.326;2022-09-27T21:31:15;2.33;;;1.23;;
61553;SDS011;47425;51.976;5.326;2022-09-27T21:33:45;2.72;;;1.10;;
61553;SDS011;47425;51.976;5.326;2022-09-27T21:36:16;1.67;;;1.00;;
61553;SDS011;47425;51.976;5.326;2022-09-27T21:38:41;3.17;;;1.02;;
61553;SDS011;47425;51.976;5.326;2022-09-27T21:41:09;1.65;;;1.35;;
61553;SDS011;47425;51.976;5.326;2022-09-27T21:43:37;1.83;;;1.13;;
61553;SDS011;47425;51.976;5.326;2022-09-27T21:46:07;1.45;;;1.15;;
61553;SDS011;47425;51.976;5.326;2022-09-27T21:48:39;2.15;;;1.30;;
61553;SDS011;47425;51.976;5.326;2022-09-27T21:51:18;3.33;;;1.17;;
61553;SDS011;47425;51.976;5.326;2022-09-27T21:53:51;2.53;;;1.20;;
61553;SDS011;47425;51.976;5.326;2022-09-27T21:56:22;2.55;;;1.20;;
61553;SDS011;47425;51.976;5.326;2022-09-27T21:58:50;2.15;;;1.35;;
61553;SDS011;47425;51.976;5.326;2022-09-27T22:01:19;1.25;;;0.82;;
61553;SDS011;47425;51.976;5.326;2022-09-27T22:03:50;2.80;;;1.10;;
61553;SDS011;47425;51.976;5.326;2022-09-27T22:06:19;1.67;;;1.00;;
61553;SDS011;47425;51.976;5.326;2022-09-27T22:08:47;1.98;;;1.27;;
61553;SDS011;47425;51.976;5.326;2022-09-27T22:11:20;1.60;;;1.10;;
61553;SDS011;47425;51.976;5.326;2022-09-27T22:13:49;1.30;;;0.93;;
61553;SDS011;47425;51.976;5.326;2022-09-27T22:16:15;2.88;;;1.08;;
61553;SDS011;47425;51.976;5.326;2022-09-27T22:18:46;1.65;;;0.98;;
61553;SDS011;47425;51.976;5.326;2022-09-27T22:21:18;2.10;;;1.10;;
61553;SDS011;47425;51.976;5.326;2022-09-27T22:23:47;1.75;;;1.00;;
61553;SDS011;47425;51.976;5.326;2022-09-27T22:26:19;1.80;;;1.10;;
61553;SDS011;47425;51.976;5.326;2022-09-27T22:28:47;1.55;;;0.95;;
